LZB977 LBSF-LBWN

Flight info

Callsign LZB977
Flight time 0h 39m
Altitude 31000
Route UMPIT DCT DICXA
Aircraft A319/M-SDE3FGHIRWY/LB1

Departure

Time 2026-05-04 12:41
Airport Sofia Airport (LBSF)

Arrival

Time 2026-05-04 13:20
Airport Varna Airport (LBWN)
Time Latitude Longitude Altitude Speed Heading
2026-05-04 12:05 42.69071 23.41310 1753 ft 0 kts 71°
2026-05-04 12:28 42.69064 23.41279 1748 ft 4 kts 71°
2026-05-04 12:28 42.69057 23.41252 1745 ft 4 kts 73°
2026-05-04 12:28 42.69054 23.41228 1744 ft 3 kts 342°
2026-05-04 12:28 42.69036 23.41236 1747 ft 0 kts 341°
2026-05-04 12:31 42.69037 23.41235 1747 ft 1 kts 341°
2026-05-04 12:31 42.69057 23.41226 1749 ft 5 kts 341°
2026-05-04 12:32 42.69108 23.41203 1750 ft 9 kts 342°
2026-05-04 12:32 42.69182 23.41168 1750 ft 0 kts 340°
2026-05-04 12:33 42.69185 23.41167 1750 ft 2 kts 340°
2026-05-04 12:33 42.69210 23.41158 1747 ft 6 kts 347°
2026-05-04 12:33 42.69261 23.41162 1747 ft 9 kts
2026-05-04 12:33 42.69333 23.41182 1753 ft 12 kts 12°
2026-05-04 12:34 42.69347 23.41185 1753 ft 0 kts 12°
2026-05-04 12:36 42.69353 23.41187 1753 ft 3 kts 12°
2026-05-04 12:36 42.69390 23.41198 1753 ft 8 kts 11°
2026-05-04 12:36 42.69455 23.41208 1753 ft 10 kts 352°
2026-05-04 12:36 42.69496 23.41137 1746 ft 11 kts 277°
2026-05-04 12:37 42.69502 23.41025 1753 ft 13 kts 274°
2026-05-04 12:37 42.69509 23.40902 1747 ft 13 kts 274°
2026-05-04 12:37 42.69518 23.40775 1753 ft 12 kts 276°
2026-05-04 12:37 42.69526 23.40657 1749 ft 13 kts 275°
2026-05-04 12:38 42.69534 23.40531 1753 ft 14 kts 272°
2026-05-04 12:38 42.69541 23.40397 1753 ft 15 kts 274°
2026-05-04 12:38 42.69549 23.40254 1753 ft 16 kts 275°
2026-05-04 12:38 42.69558 23.40103 1753 ft 16 kts 275°
2026-05-04 12:39 42.69568 23.39944 1753 ft 17 kts 274°
2026-05-04 12:39 42.69576 23.39775 1753 ft 18 kts 273°
2026-05-04 12:39 42.69592 23.39618 1753 ft 15 kts 303°
2026-05-04 12:39 42.69689 23.39594 1753 ft 15 kts
2026-05-04 12:40 42.69768 23.39669 1753 ft 15 kts 81°
2026-05-04 12:40 42.69759 23.39877 1754 ft 45 kts 94°
2026-05-04 12:40 42.69715 23.40670 1751 ft 120 kts 94°
2026-05-04 12:40 42.69632 23.42046 1930 ft 159 kts 94°
2026-05-04 12:41 42.69536 23.43541 2680 ft 160 kts 94°
2026-05-04 12:41 42.69455 23.45058 3499 ft 163 kts 90°
2026-05-04 12:41 42.69353 23.46592 4366 ft 162 kts 89°
2026-05-04 12:41 42.69385 23.48184 4875 ft 179 kts 70°
2026-05-04 12:42 42.69910 23.49838 5287 ft 204 kts 63°
2026-05-04 12:42 42.70542 23.51690 5864 ft 229 kts 63°
2026-05-04 12:42 42.71232 23.53730 6527 ft 251 kts 64°
2026-05-04 12:42 42.71974 23.55956 7492 ft 258 kts 64°
2026-05-04 12:43 42.72701 23.58163 8557 ft 261 kts 64°
2026-05-04 12:43 42.73445 23.60439 9632 ft 266 kts 64°
2026-05-04 12:43 42.74206 23.62781 10443 ft 280 kts 65°
2026-05-04 12:43 42.75021 23.65296 11014 ft 299 kts 65°
2026-05-04 12:44 42.75871 23.67928 11875 ft 307 kts 65°
2026-05-04 12:44 42.76732 23.70605 12767 ft 312 kts 65°
2026-05-04 12:44 42.77609 23.73335 13715 ft 316 kts 65°
2026-05-04 12:44 42.78494 23.76093 14538 ft 321 kts 65°
2026-05-04 12:45 42.79396 23.78904 15257 ft 327 kts 65°
2026-05-04 12:45 42.80312 23.81772 15996 ft 333 kts 66°
2026-05-04 12:45 42.80965 23.84835 16693 ft 343 kts 77°
2026-05-04 12:45 42.81117 23.88113 17363 ft 352 kts 90°
2026-05-04 12:46 42.80803 23.91464 18060 ft 361 kts 96°
2026-05-04 12:46 42.80425 23.94868 18707 ft 367 kts 96°
2026-05-04 12:46 42.80049 23.98325 19384 ft 371 kts 95°
2026-05-04 12:46 42.79671 24.01815 20106 ft 373 kts 95°
2026-05-04 12:47 42.79293 24.05317 20837 ft 375 kts 96°
2026-05-04 12:47 42.78910 24.08846 21574 ft 377 kts 95°
2026-05-04 12:47 42.78809 24.12396 22279 ft 375 kts 81°
2026-05-04 12:47 42.79296 24.15874 23018 ft 375 kts 76°
2026-05-04 12:48 42.79842 24.19360 23737 ft 377 kts 76°
2026-05-04 12:48 42.80393 24.22866 24311 ft 379 kts 76°
2026-05-04 12:48 42.80946 24.26385 24876 ft 382 kts 77°
2026-05-04 12:48 42.81500 24.29927 25424 ft 384 kts 77°
2026-05-04 12:49 42.82057 24.33503 25965 ft 386 kts 78°
2026-05-04 12:49 42.82610 24.37049 26463 ft 390 kts 78°
2026-05-04 12:49 42.83173 24.40678 26963 ft 393 kts 78°
2026-05-04 12:49 42.83736 24.44329 27464 ft 395 kts 78°
2026-05-04 12:50 42.84305 24.48015 27941 ft 399 kts 79°
2026-05-04 12:50 42.84876 24.51721 28424 ft 402 kts 79°
2026-05-04 12:50 42.85449 24.55466 28919 ft 405 kts 79°
2026-05-04 12:50 42.86023 24.59233 29403 ft 408 kts 79°
2026-05-04 12:51 42.86604 24.63039 29889 ft 411 kts 79°
2026-05-04 12:51 42.87186 24.66853 30338 ft 413 kts 79°
2026-05-04 12:51 42.87775 24.70704 30726 ft 416 kts 79°
2026-05-04 12:51 42.88364 24.74575 31020 ft 418 kts 79°
2026-05-04 12:52 42.88942 24.78381 31084 ft 401 kts 79°
2026-05-04 12:52 42.89494 24.82022 31095 ft 385 kts 79°
2026-05-04 12:52 42.90029 24.85577 31095 ft 380 kts 79°
2026-05-04 12:53 42.91077 24.92602 31092 ft 377 kts 79°
2026-05-04 12:53 42.92115 24.99589 31088 ft 376 kts 79°
2026-05-04 12:54 42.93149 25.06573 31081 ft 375 kts 79°
2026-05-04 12:54 42.94182 25.13545 31089 ft 375 kts 79°
2026-05-04 12:55 42.95212 25.20521 31081 ft 374 kts 79°
2026-05-04 12:55 42.96232 25.27436 31070 ft 374 kts 79°
2026-05-04 12:56 42.97254 25.34424 30885 ft 371 kts 79°
2026-05-04 12:56 42.97751 25.37831 30321 ft 371 kts 79°
2026-05-04 12:56 42.98253 25.41293 29664 ft 371 kts 79°
2026-05-04 12:56 42.98751 25.44745 29101 ft 369 kts 79°
2026-05-04 12:57 42.99244 25.48183 28647 ft 369 kts 79°
2026-05-04 12:57 42.99737 25.51611 28189 ft 367 kts 78°
2026-05-04 12:57 43.00230 25.55024 27736 ft 365 kts 78°
2026-05-04 12:57 43.00721 25.58424 27291 ft 364 kts 78°
2026-05-04 12:58 43.01206 25.61810 26858 ft 362 kts 78°
2026-05-04 12:58 43.01689 25.65183 26428 ft 361 kts 78°
2026-05-04 12:58 43.02169 25.68534 26001 ft 359 kts 78°
2026-05-04 12:58 43.02646 25.71879 25586 ft 358 kts 78°
2026-05-04 12:59 43.03117 25.75211 25170 ft 356 kts 78°
2026-05-04 12:59 43.03582 25.78522 24767 ft 354 kts 77°
2026-05-04 12:59 43.04048 25.81824 24360 ft 353 kts 77°
2026-05-04 12:59 43.04515 25.85109 23967 ft 351 kts 77°
2026-05-04 13:00 43.04823 25.87274 23737 ft 350 kts 77°
2026-05-04 13:00 43.05433 25.91585 23199 ft 347 kts 77°
2026-05-04 13:00 43.05885 25.94814 22797 ft 344 kts 77°
2026-05-04 13:00 43.06329 25.98016 22399 ft 342 kts 77°
2026-05-04 13:01 43.06769 26.01193 22014 ft 339 kts 77°
2026-05-04 13:01 43.07207 26.04347 21638 ft 336 kts 76°
2026-05-04 13:01 43.07502 26.06462 21396 ft 335 kts 76°
2026-05-04 13:01 43.07938 26.09583 21037 ft 333 kts 76°
2026-05-04 13:02 43.08367 26.12678 20683 ft 330 kts 76°
2026-05-04 13:02 43.08793 26.15760 20333 ft 328 kts 76°
2026-05-04 13:02 43.09217 26.18821 19988 ft 327 kts 75°
2026-05-04 13:02 43.09637 26.21870 19645 ft 325 kts 75°
2026-05-04 13:03 43.10054 26.24908 19308 ft 324 kts 75°
2026-05-04 13:03 43.10462 26.27884 18979 ft 322 kts 75°
2026-05-04 13:03 43.10874 26.30891 18650 ft 321 kts 75°
2026-05-04 13:03 43.11285 26.33886 18315 ft 320 kts 75°
2026-05-04 13:04 43.11690 26.36869 17938 ft 318 kts 75°
2026-05-04 13:04 43.12091 26.39833 17567 ft 316 kts 75°
2026-05-04 13:04 43.12491 26.42778 17192 ft 313 kts 75°
2026-05-04 13:04 43.12887 26.45698 16827 ft 311 kts 75°
2026-05-04 13:05 43.13279 26.48600 16469 ft 308 kts 75°
2026-05-04 13:05 43.13667 26.51476 16113 ft 306 kts 75°
2026-05-04 13:05 43.14052 26.54328 15756 ft 304 kts 75°
2026-05-04 13:05 43.14433 26.57166 15407 ft 302 kts 76°
2026-05-04 13:06 43.14811 26.59985 15055 ft 300 kts 76°
2026-05-04 13:06 43.15187 26.62794 14714 ft 298 kts 76°
2026-05-04 13:06 43.15559 26.65575 14376 ft 296 kts 76°
2026-05-04 13:06 43.15930 26.68337 14037 ft 294 kts 76°
2026-05-04 13:07 43.16293 26.71039 13700 ft 292 kts 76°
2026-05-04 13:07 43.16655 26.73768 13325 ft 290 kts 76°
2026-05-04 13:07 43.17015 26.76487 12954 ft 289 kts 76°
2026-05-04 13:07 43.17370 26.79185 12584 ft 287 kts 76°
2026-05-04 13:08 43.17723 26.81869 12225 ft 286 kts 75°
2026-05-04 13:08 43.18077 26.84547 11863 ft 284 kts 76°
2026-05-04 13:08 43.18428 26.87205 11497 ft 283 kts 75°
2026-05-04 13:08 43.18775 26.89846 11159 ft 281 kts 75°
2026-05-04 13:09 43.19122 26.92480 10806 ft 280 kts 75°
2026-05-04 13:09 43.19465 26.95096 10464 ft 279 kts 75°
2026-05-04 13:09 43.19806 26.97704 10131 ft 277 kts 75°
2026-05-04 13:09 43.20144 27.00288 9783 ft 274 kts 75°
2026-05-04 13:10 43.20476 27.02837 9397 ft 269 kts 75°
2026-05-04 13:10 43.20802 27.05346 9038 ft 266 kts 75°
2026-05-04 13:10 43.21122 27.07822 8674 ft 263 kts 75°
2026-05-04 13:10 43.21440 27.10291 8299 ft 262 kts 75°
2026-05-04 13:11 43.21755 27.12744 7951 ft 261 kts 75°
2026-05-04 13:11 43.22068 27.15188 7600 ft 260 kts 75°
2026-05-04 13:11 43.22379 27.17611 7244 ft 257 kts 75°
2026-05-04 13:11 43.22691 27.20029 6898 ft 257 kts 75°
2026-05-04 13:12 43.22998 27.22427 6560 ft 256 kts 74°
2026-05-04 13:12 43.23307 27.24824 6208 ft 255 kts 75°
2026-05-04 13:12 43.23615 27.27223 5835 ft 256 kts 75°
2026-05-04 13:12 43.23925 27.29635 5478 ft 257 kts 76°
2026-05-04 13:13 43.24210 27.31871 5154 ft 260 kts 76°
2026-05-04 13:13 43.24519 27.34289 4898 ft 262 kts 76°
2026-05-04 13:13 43.24833 27.36751 4636 ft 262 kts 76°
2026-05-04 13:13 43.25146 27.39214 4408 ft 262 kts 76°
2026-05-04 13:14 43.25453 27.41656 4274 ft 254 kts 76°
2026-05-04 13:14 43.25741 27.43979 4145 ft 240 kts 76°
2026-05-04 13:14 43.26016 27.46183 4037 ft 231 kts 76°
2026-05-04 13:14 43.26133 27.48502 3995 ft 255 kts 88°
2026-05-04 13:15 43.25977 27.50854 3995 ft 238 kts 93°
2026-05-04 13:15 43.25774 27.53032 4000 ft 223 kts 93°
2026-05-04 13:15 43.25592 27.55092 3905 ft 214 kts 92°
2026-05-04 13:15 43.25418 27.57114 3663 ft 213 kts 92°
2026-05-04 13:16 43.25244 27.59128 3395 ft 212 kts 92°
2026-05-04 13:16 43.25071 27.61134 3103 ft 211 kts 92°
2026-05-04 13:16 43.24899 27.63110 2817 ft 207 kts 92°
2026-05-04 13:16 43.24730 27.65049 2547 ft 202 kts 91°
2026-05-04 13:17 43.24564 27.66948 2287 ft 200 kts 90°
2026-05-04 13:17 43.24401 27.68808 2016 ft 193 kts 92°
2026-05-04 13:17 43.24245 27.70580 1773 ft 182 kts 92°
2026-05-04 13:17 43.24100 27.72230 1533 ft 164 kts 92°
2026-05-04 13:18 43.23968 27.73715 1299 ft 151 kts 92°
2026-05-04 13:18 43.23843 27.75078 1108 ft 139 kts 91°
2026-05-04 13:18 43.23737 27.76345 881 ft 130 kts 90°
2026-05-04 13:18 43.23630 27.77560 705 ft 129 kts 89°
2026-05-04 13:19 43.23530 27.78774 564 ft 129 kts 91°
2026-05-04 13:19 43.23424 27.79990 403 ft 128 kts 89°
2026-05-04 13:19 43.23314 27.81198 239 ft 127 kts 90°
2026-05-04 13:19 43.23231 27.82253 224 ft 94 kts 97°
2026-05-04 13:20 43.23158 27.83009 223 ft 57 kts 97°
2026-05-04 13:20 43.23141 27.83236 223 ft 15 kts 79°
2026-05-04 13:20 43.23226 27.83296 222 ft 14 kts
2026-05-04 13:20 43.23329 27.83313 222 ft 16 kts
2026-05-04 13:21 43.23442 27.83331 222 ft 17 kts
2026-05-04 13:21 43.23536 27.83276 222 ft 16 kts 286°
2026-05-04 13:21 43.23547 27.83120 222 ft 17 kts 272°
2026-05-04 13:21 43.23555 27.82981 222 ft 11 kts 275°
2026-05-04 13:22 43.23547 27.82868 222 ft 13 kts 268°
2026-05-04 13:22 43.23554 27.82743 222 ft 14 kts 276°
2026-05-04 13:22 43.23565 27.82613 222 ft 8 kts 276°
2026-05-04 13:22 43.23579 27.82587 223 ft 3 kts 22°
2026-05-04 13:23 43.23590 27.82612 222 ft 4 kts 63°
2026-05-04 13:23 43.23604 27.82650 223 ft 3 kts 63°
2026-05-04 13:23 43.23609 27.82666 222 ft 0 kts 64°